Gaslog data for LOST CRD-GDE TUNE

Go Back   Gas Savers - Fuel Efficiency Forum > Garage > LOST CRD-GDE TUNE
Add Garage Entry Top Ten Entries Search the Garage


Welcome, non logged-in user
Your Garage


Gaslog data for LOST CRD-GDE TUNE
Date Distance Fuel Used Cost of Fuel Notes MPG(US)
06/10/2010 367.5 17.248 50 21.30
06/04/2010 140.3 5.468 16 25.65
05/20/2010 388.5 20.006 58 19.41
05/10/2010 319.9 14.34 42 22.30
05/07/2010 199.5 7.826 23 25.49
04/09/2010 311.3 13.107 38 23.75
04/05/2010 184 8.278 24 22.22
03/27/2010 355.4 16.435 46 21.62
03/22/2010 247.4 10.368 29 23.86
03/20/2010 313.4 14.658 41.01 21.38
03/14/2010 396.7 19.054 52 20.81
03/10/2010 441.3 19.935 55 22.13
03/04/2010 393.5 18.935 53 20.78
03/01/2010 188.9 8.892 24 21.24
02/20/2010 346.2 15.93 44 21.73
02/15/2010 78.5 3.879 10.7 20.23
02/14/2010 90.2 4.257 11.5 21.18
02/12/2010 232.9 11.571 31 20.12
02/10/2010 899.731 41.469 110.5 21.69
01/31/2010 210.5 8.851 23 23.78
01/30/2010 62.8 3.278 8.5 19.15
01/29/2010 254.9 11.684 32 21.81
01/25/2010 169.7 7.779 21 21.81
01/22/2010 498.7 24.746 67includes 16 Drag Strip Runs...best of 16.46 @ 80.8mph20.15
01/14/2010 232.4 9.289 26 25.01
01/12/2010 315.7 15.007 41.25 21.03
01/08/2010 246.5 11.436 31.55 21.55
01/05/2010 391.1 17.699 46 22.09
12/28/2009 135.87 4.062 11.05120 pure highway at 1715 rpm33.44
12/27/2009 379.9 17.367 44.25 21.87
12/25/2009 393.4 15.068 39.25 26.10
12/22/2009 170.5 7.815 20 21.81
12/19/2009 190.2 8.399 22 22.64
12/16/2009 137.3 6.925 18 19.82
12/14/2009 262.1 12.696 33 20.64
12/10/2009 194.3 7.315 19.6 26.56
12/09/2009 72.5 4.136 11 17.52
12/08/2009 183.4 7.815 20 23.46
12/05/2009 106.4 5.102 13.5Blown CAC to INTAKE(EGR) Intercooler hose ($127.00 w/tax...installed myself)20.85
12/03/2009 121.2 5.792 16 20.92
12/01/2009 178.7 9.401 25 19.00
11/28/2009 81.85 3.67 9.65 22.30
11/26/2009 149 4.485 12.09120 highway miles33.22
11/25/2009 286.6 15.046 38.5 19.04
11/20/2009 169.95 7.933 21.25 21.42
11/16/2009 159.2 6.298 17 25.27
11/14/2009 126 6.865 18.25 18.35
11/12/2009 157.2 5.922 15.75 26.54
11/11/2009 104.67 5.515 14 18.97
11/08/2009 68.6 3.216 9 21.33
11/07/2009 108.2 5.494 14.5 19.69
11/05/2009 373.65 18.154 49 20.58
10/30/2009 157.2 6.441 17 24.40
10/30/2009 88.1 5.019 13.35Heavy Foot to see diff17.55
10/27/2009 113.16 5.65 14 20.02
10/25/2009 94.5 3.007 8First Highway miles...17-1900 rpm...62-65mph w/ AC31.42
10/25/2009 46.92 2.205 6 21.27
10/24/2009 70.38 2.734 7 25.74
10/23/2009 73.5 2.941 8 24.99
10/02/2009 110.4 5.042 13First trial with GDE Tune...21.89


All times are GMT -6. The time now is 02:31 PM.


Copyright 2005-2008 GasSavers.Org